DAL72 KATL-EHAM
Flight info
| Callsign | DAL72 |
|---|---|
| Flight time | N/A |
| Altitude | 35000 |
| Route | PLMMR3 BURGG DCT MOL DCT LDN DCT MRB DCT HAR DCT HNK DCT ALB DCT CAM DCT MOBAL DCT BAREE DCT TABRU DCT IRLOK/M082F370 DCT 56N050W 57N040W 58N030W 58N020W DCT GOMUP/N0464F370 DCT GINGA/N0466F390 DCT ERKIT N110 DOLAS L603 LAMSO |
| Aircraft | A333/H-SDE3GHIJ2J3J5M1RVWXY/LB2D1 |
Departure
| Time | N/A |
|---|---|
| Airport | Hartsfield Jackson Atlanta International Airport (KATL) |
Arrival
| Time | 2026-04-29 20:32 |
|---|---|
| Airport | Amsterdam Airport Schiphol (EHAM) |
| Time | Latitude | Longitude | Altitude | Speed | Heading |
|---|---|---|---|---|---|
| 2026-04-29 17:44 | 58.04565 | -28.65865 | 35149 ft | 496 kts | 92° |
| 2026-04-29 17:44 | 58.04932 | -28.52788 | 35144 ft | 499 kts | 92° |
| 2026-04-29 17:45 | 58.05290 | -28.39640 | 35144 ft | 498 kts | 92° |
| 2026-04-29 17:45 | 58.05633 | -28.26519 | 35142 ft | 497 kts | 94° |
| 2026-04-29 17:46 | 58.05961 | -28.13401 | 35148 ft | 500 kts | 93° |
| 2026-04-29 17:46 | 58.06281 | -28.00142 | 35136 ft | 499 kts | 94° |
| 2026-04-29 17:47 | 58.06582 | -27.86984 | 35159 ft | 499 kts | 94° |
| 2026-04-29 17:47 | 58.06874 | -27.73710 | 35155 ft | 500 kts | 94° |
| 2026-04-29 17:48 | 58.07151 | -27.60518 | 35135 ft | 498 kts | 94° |
| 2026-04-29 17:48 | 58.07413 | -27.47352 | 35150 ft | 501 kts | 95° |
| 2026-04-29 17:49 | 58.07666 | -27.34057 | 35142 ft | 501 kts | 96° |
| 2026-04-29 17:49 | 58.07899 | -27.20872 | 35143 ft | 496 kts | 96° |
| 2026-04-29 17:50 | 58.08120 | -27.07628 | 35151 ft | 500 kts | 96° |
| 2026-04-29 17:50 | 58.08331 | -26.94369 | 35151 ft | 500 kts | 96° |
| 2026-04-29 17:51 | 58.08526 | -26.81177 | 35142 ft | 498 kts | 97° |
| 2026-04-29 17:51 | 58.08703 | -26.68008 | 35160 ft | 497 kts | 97° |
| 2026-04-29 17:52 | 58.08871 | -26.54730 | 35164 ft | 502 kts | 97° |
| 2026-04-29 17:52 | 58.09028 | -26.41519 | 35157 ft | 497 kts | 98° |
| 2026-04-29 17:53 | 58.09166 | -26.28322 | 35173 ft | 496 kts | 99° |
| 2026-04-29 17:53 | 58.09291 | -26.15227 | 35178 ft | 494 kts | 99° |
| 2026-04-29 17:54 | 58.09402 | -26.02057 | 35172 ft | 499 kts | 99° |
| 2026-04-29 17:54 | 58.09500 | -25.88896 | 35179 ft | 495 kts | 99° |
| 2026-04-29 17:55 | 58.09584 | -25.75752 | 35188 ft | 497 kts | 99° |
| 2026-04-29 17:55 | 58.09656 | -25.62591 | 35165 ft | 492 kts | 100° |
| 2026-04-29 17:56 | 58.09712 | -25.49482 | 35191 ft | 498 kts | 99° |
| 2026-04-29 17:56 | 58.09758 | -25.36339 | 35175 ft | 496 kts | 100° |
| 2026-04-29 17:57 | 58.09790 | -25.23253 | 35176 ft | 491 kts | 101° |
| 2026-04-29 17:57 | 58.09807 | -25.10214 | 35091 ft | 489 kts | 101° |
| 2026-04-29 17:58 | 58.09808 | -24.97187 | 35178 ft | 494 kts | 100° |
| 2026-04-29 17:58 | 58.09798 | -24.84112 | 35183 ft | 492 kts | 101° |
| 2026-04-29 17:59 | 58.09777 | -24.71077 | 35161 ft | 493 kts | 100° |
| 2026-04-29 17:59 | 58.09739 | -24.58013 | 35172 ft | 490 kts | 100° |
| 2026-04-29 18:00 | 58.09689 | -24.44923 | 35184 ft | 493 kts | 100° |
| 2026-04-29 18:00 | 58.09629 | -24.31962 | 35170 ft | 488 kts | 101° |
| 2026-04-29 18:01 | 58.09550 | -24.18967 | 35166 ft | 489 kts | 101° |
| 2026-04-29 18:01 | 58.09463 | -24.06029 | 35163 ft | 489 kts | 101° |
| 2026-04-29 18:02 | 58.09359 | -23.92999 | 35163 ft | 489 kts | 101° |
| 2026-04-29 18:02 | 58.09245 | -23.79985 | 35164 ft | 489 kts | 101° |
| 2026-04-29 18:03 | 58.09117 | -23.67048 | 35158 ft | 487 kts | 101° |
| 2026-04-29 18:03 | 58.08973 | -23.54048 | 35172 ft | 490 kts | 100° |
| 2026-04-29 18:04 | 58.08820 | -23.41053 | 35168 ft | 490 kts | 100° |
| 2026-04-29 18:04 | 58.08651 | -23.28040 | 35161 ft | 489 kts | 101° |
| 2026-04-29 18:05 | 58.08470 | -23.15101 | 35166 ft | 487 kts | 101° |
| 2026-04-29 18:05 | 58.08275 | -23.02141 | 35164 ft | 490 kts | 101° |
| 2026-04-29 18:06 | 58.08069 | -22.89233 | 35163 ft | 489 kts | 100° |
| 2026-04-29 18:06 | 58.07848 | -22.76319 | 35158 ft | 488 kts | 101° |
| 2026-04-29 18:07 | 58.07615 | -22.63343 | 35151 ft | 485 kts | 101° |
| 2026-04-29 18:07 | 58.07370 | -22.50516 | 35146 ft | 486 kts | 100° |
| 2026-04-29 18:08 | 58.07114 | -22.37685 | 35143 ft | 483 kts | 100° |
| 2026-04-29 18:08 | 58.06841 | -22.24838 | 35139 ft | 483 kts | 101° |
| 2026-04-29 18:09 | 58.06562 | -22.12107 | 35139 ft | 482 kts | 101° |
| 2026-04-29 18:09 | 58.06265 | -21.99332 | 35141 ft | 483 kts | 101° |
| 2026-04-29 18:10 | 58.05959 | -21.86579 | 35137 ft | 480 kts | 101° |
| 2026-04-29 18:10 | 58.05642 | -21.73884 | 35135 ft | 480 kts | 101° |
| 2026-04-29 18:11 | 58.05307 | -21.61152 | 35134 ft | 480 kts | 100° |
| 2026-04-29 18:11 | 58.04964 | -21.48470 | 35134 ft | 481 kts | 100° |
| 2026-04-29 18:12 | 58.04608 | -21.35753 | 35132 ft | 481 kts | 100° |
| 2026-04-29 18:12 | 58.04240 | -21.23099 | 35122 ft | 478 kts | 101° |
| 2026-04-29 18:13 | 58.03858 | -21.10431 | 35123 ft | 480 kts | 101° |
| 2026-04-29 18:13 | 58.03463 | -20.97749 | 35123 ft | 482 kts | 101° |
| 2026-04-29 18:14 | 58.03056 | -20.84992 | 35121 ft | 481 kts | 100° |
| 2026-04-29 18:14 | 58.02636 | -20.72307 | 35124 ft | 477 kts | 100° |
| 2026-04-29 18:15 | 58.02204 | -20.59676 | 35130 ft | 479 kts | 100° |
| 2026-04-29 18:15 | 58.01763 | -20.47084 | 35133 ft | 477 kts | 100° |
| 2026-04-29 18:16 | 58.01307 | -20.34474 | 35133 ft | 476 kts | 101° |
| 2026-04-29 18:16 | 58.00842 | -20.21916 | 35135 ft | 477 kts | 101° |
| 2026-04-29 18:17 | 58.00361 | -20.09275 | 35138 ft | 476 kts | 101° |
| 2026-04-29 18:17 | 57.99892 | -19.96767 | 35143 ft | 477 kts | 99° |
| 2026-04-29 18:18 | 57.99100 | -19.84402 | 35142 ft | 471 kts | 103° |
| 2026-04-29 18:18 | 57.98329 | -19.71947 | 35145 ft | 470 kts | 103° |
| 2026-04-29 18:19 | 57.97575 | -19.59647 | 35147 ft | 471 kts | 102° |
| 2026-04-29 18:19 | 57.96803 | -19.47254 | 35151 ft | 471 kts | 102° |
| 2026-04-29 18:20 | 57.96021 | -19.34875 | 35149 ft | 472 kts | 103° |
| 2026-04-29 18:20 | 57.95227 | -19.22500 | 35157 ft | 472 kts | 103° |
| 2026-04-29 18:21 | 57.94418 | -19.10122 | 35160 ft | 472 kts | 103° |
| 2026-04-29 18:21 | 57.93601 | -18.97758 | 35158 ft | 471 kts | 103° |
| 2026-04-29 18:22 | 57.92772 | -18.85447 | 35159 ft | 470 kts | 103° |
| 2026-04-29 18:22 | 57.91933 | -18.73148 | 35144 ft | 469 kts | 102° |
| 2026-04-29 18:23 | 57.91081 | -18.60824 | 35156 ft | 469 kts | 102° |
| 2026-04-29 18:23 | 57.90216 | -18.48517 | 35171 ft | 469 kts | 102° |
| 2026-04-29 18:24 | 57.89344 | -18.36264 | 35177 ft | 470 kts | 102° |
| 2026-04-29 18:24 | 57.88454 | -18.23953 | 35173 ft | 470 kts | 103° |
| 2026-04-29 18:25 | 57.87555 | -18.11667 | 35175 ft | 469 kts | 103° |
| 2026-04-29 18:25 | 57.86647 | -17.99439 | 35169 ft | 468 kts | 103° |
| 2026-04-29 18:26 | 57.85734 | -17.87291 | 35172 ft | 467 kts | 103° |
| 2026-04-29 18:26 | 57.84806 | -17.75112 | 35191 ft | 466 kts | 103° |
| 2026-04-29 18:27 | 57.83868 | -17.62970 | 35189 ft | 465 kts | 102° |
| 2026-04-29 18:27 | 57.82914 | -17.50759 | 35187 ft | 466 kts | 102° |
| 2026-04-29 18:28 | 57.81953 | -17.38629 | 35187 ft | 465 kts | 102° |
| 2026-04-29 18:28 | 57.80983 | -17.26529 | 35196 ft | 464 kts | 103° |
| 2026-04-29 18:29 | 57.80011 | -17.14553 | 35210 ft | 462 kts | 103° |
| 2026-04-29 18:29 | 57.79020 | -17.02507 | 35217 ft | 461 kts | 103° |
| 2026-04-29 18:30 | 57.78025 | -16.90541 | 35222 ft | 462 kts | 103° |
| 2026-04-29 18:30 | 57.77016 | -16.78556 | 35229 ft | 462 kts | 103° |
| 2026-04-29 18:31 | 57.75994 | -16.66555 | 35227 ft | 462 kts | 103° |
| 2026-04-29 18:31 | 57.74957 | -16.54520 | 35236 ft | 462 kts | 103° |
| 2026-04-29 18:32 | 57.73917 | -16.42583 | 35233 ft | 461 kts | 103° |
| 2026-04-29 18:32 | 57.72333 | -16.24664 | 35237 ft | 460 kts | 103° |
| 2026-04-29 18:33 | 57.71267 | -16.12750 | 35236 ft | 460 kts | 104° |
| 2026-04-29 18:33 | 57.70187 | -16.00842 | 35241 ft | 459 kts | 104° |
| 2026-04-29 18:34 | 57.69280 | -15.90929 | 35235 ft | 460 kts | 103° |
| 2026-04-29 18:34 | 57.67999 | -15.77086 | 35240 ft | 459 kts | 103° |
| 2026-04-29 18:35 | 57.66888 | -15.65219 | 35248 ft | 459 kts | 103° |
| 2026-04-29 18:35 | 57.65759 | -15.53275 | 35243 ft | 459 kts | 103° |
| 2026-04-29 18:36 | 57.64628 | -15.41450 | 35248 ft | 459 kts | 103° |
| 2026-04-29 18:36 | 57.63488 | -15.29641 | 35245 ft | 459 kts | 104° |
| 2026-04-29 18:37 | 57.62908 | -15.23679 | 35355 ft | 459 kts | 104° |
| 2026-04-29 18:37 | 57.62331 | -15.17781 | 35205 ft | 460 kts | 104° |
| 2026-04-29 18:37 | 57.61167 | -15.05969 | 35249 ft | 457 kts | 104° |
| 2026-04-29 18:38 | 57.59999 | -14.94244 | 35244 ft | 457 kts | 104° |
| 2026-04-29 18:38 | 57.58816 | -14.82484 | 35244 ft | 458 kts | 104° |
| 2026-04-29 18:39 | 57.57613 | -14.70641 | 35247 ft | 458 kts | 104° |
| 2026-04-29 18:39 | 57.56416 | -14.58957 | 35254 ft | 456 kts | 104° |
| 2026-04-29 18:40 | 57.55203 | -14.47246 | 35255 ft | 456 kts | 104° |
| 2026-04-29 18:40 | 57.53976 | -14.35515 | 35258 ft | 456 kts | 104° |
| 2026-04-29 18:41 | 57.51505 | -14.12201 | 35264 ft | 455 kts | 104° |
| 2026-04-29 18:42 | 57.50258 | -14.00600 | 35263 ft | 454 kts | 104° |
| 2026-04-29 18:42 | 57.48989 | -13.88912 | 35262 ft | 454 kts | 104° |
| 2026-04-29 18:43 | 57.47725 | -13.77360 | 35261 ft | 454 kts | 104° |
| 2026-04-29 18:43 | 57.46442 | -13.65757 | 35272 ft | 454 kts | 104° |
| 2026-04-29 18:44 | 57.45154 | -13.54201 | 35279 ft | 454 kts | 104° |
| 2026-04-29 18:44 | 57.43851 | -13.42614 | 35281 ft | 453 kts | 104° |
| 2026-04-29 18:45 | 57.42538 | -13.31050 | 35288 ft | 451 kts | 105° |
| 2026-04-29 18:45 | 57.41223 | -13.19567 | 35288 ft | 452 kts | 105° |
| 2026-04-29 18:46 | 57.39897 | -13.08077 | 35295 ft | 451 kts | 105° |
| 2026-04-29 18:46 | 57.38556 | -12.96566 | 35297 ft | 451 kts | 104° |
| 2026-04-29 18:47 | 57.37215 | -12.85143 | 35298 ft | 450 kts | 105° |
| 2026-04-29 18:47 | 57.35863 | -12.73741 | 35296 ft | 450 kts | 104° |
| 2026-04-29 18:48 | 57.34500 | -12.62325 | 35295 ft | 449 kts | 104° |
| 2026-04-29 18:48 | 57.33129 | -12.50943 | 35294 ft | 449 kts | 104° |
| 2026-04-29 18:49 | 57.31744 | -12.39542 | 35293 ft | 448 kts | 104° |
| 2026-04-29 18:49 | 57.30358 | -12.28212 | 35293 ft | 447 kts | 105° |
| 2026-04-29 18:50 | 57.28960 | -12.16888 | 35294 ft | 447 kts | 105° |
| 2026-04-29 18:50 | 57.27554 | -12.05584 | 35295 ft | 445 kts | 105° |
| 2026-04-29 18:51 | 57.26142 | -11.94330 | 35295 ft | 446 kts | 105° |
| 2026-04-29 18:51 | 57.24712 | -11.83018 | 35294 ft | 445 kts | 105° |
| 2026-04-29 18:52 | 57.23286 | -11.71825 | 35300 ft | 444 kts | 105° |
| 2026-04-29 18:52 | 57.21845 | -11.60598 | 35304 ft | 445 kts | 105° |
| 2026-04-29 18:53 | 57.20404 | -11.49454 | 35305 ft | 444 kts | 105° |
| 2026-04-29 18:53 | 57.18938 | -11.38215 | 35306 ft | 444 kts | 105° |
| 2026-04-29 18:54 | 57.17482 | -11.27125 | 35306 ft | 442 kts | 105° |
| 2026-04-29 18:54 | 57.16006 | -11.15968 | 35307 ft | 443 kts | 105° |
| 2026-04-29 18:55 | 57.14531 | -11.04907 | 35316 ft | 442 kts | 105° |
| 2026-04-29 18:55 | 57.13037 | -10.93786 | 35334 ft | 442 kts | 105° |
| 2026-04-29 18:56 | 57.11535 | -10.82686 | 35327 ft | 441 kts | 105° |
| 2026-04-29 18:56 | 57.10029 | -10.71629 | 35322 ft | 441 kts | 105° |
| 2026-04-29 18:57 | 57.08513 | -10.60589 | 35324 ft | 440 kts | 105° |
| 2026-04-29 18:57 | 57.06990 | -10.49582 | 35326 ft | 440 kts | 105° |
| 2026-04-29 18:58 | 57.05455 | -10.38565 | 35324 ft | 440 kts | 105° |
| 2026-04-29 18:58 | 57.03919 | -10.27610 | 35328 ft | 440 kts | 106° |
| 2026-04-29 18:59 | 57.02369 | -10.16630 | 35329 ft | 440 kts | 106° |
| 2026-04-29 18:59 | 57.00807 | -10.05652 | 35327 ft | 439 kts | 106° |
| 2026-04-29 19:00 | 56.99211 | -9.94723 | 35333 ft | 439 kts | 106° |
| 2026-04-29 19:00 | 56.97606 | -9.83878 | 35332 ft | 439 kts | 106° |
| 2026-04-29 19:01 | 56.95978 | -9.72996 | 35334 ft | 437 kts | 106° |
| 2026-04-29 19:01 | 56.94345 | -9.62145 | 35332 ft | 437 kts | 106° |
| 2026-04-29 19:02 | 56.92975 | -9.53106 | 35330 ft | 437 kts | 106° |
| 2026-04-29 19:02 | 56.91526 | -9.46144 | 35329 ft | 434 kts | 117° |
| 2026-04-29 19:02 | 56.90080 | -9.41159 | 35347 ft | 436 kts | 117° |
| 2026-04-29 19:03 | 56.87282 | -9.31198 | 35339 ft | 436 kts | 118° |
| 2026-04-29 19:03 | 56.84504 | -9.21267 | 35330 ft | 434 kts | 117° |
| 2026-04-29 19:04 | 56.81722 | -9.11359 | 35336 ft | 433 kts | 117° |
| 2026-04-29 19:04 | 56.78951 | -9.01530 | 35340 ft | 432 kts | 117° |
| 2026-04-29 19:05 | 56.76150 | -8.91638 | 35334 ft | 433 kts | 117° |
| 2026-04-29 19:05 | 56.73356 | -8.81813 | 35329 ft | 434 kts | 117° |
| 2026-04-29 19:06 | 56.70559 | -8.72017 | 35337 ft | 432 kts | 117° |
| 2026-04-29 19:07 | 56.66346 | -8.57343 | 35343 ft | 432 kts | 117° |
| 2026-04-29 19:07 | 56.63533 | -8.47591 | 35346 ft | 432 kts | 117° |
| 2026-04-29 19:08 | 56.60709 | -8.37849 | 35339 ft | 431 kts | 117° |
| 2026-04-29 19:08 | 56.57893 | -8.28171 | 35347 ft | 430 kts | 118° |
| 2026-04-29 19:09 | 56.55054 | -8.18455 | 35346 ft | 430 kts | 118° |
| 2026-04-29 19:09 | 56.52217 | -8.08789 | 35345 ft | 430 kts | 118° |
| 2026-04-29 19:10 | 56.49372 | -7.99133 | 35344 ft | 429 kts | 118° |
| 2026-04-29 19:10 | 56.46526 | -7.89515 | 35351 ft | 428 kts | 118° |
| 2026-04-29 19:11 | 56.43687 | -7.79960 | 35351 ft | 429 kts | 118° |
| 2026-04-29 19:11 | 56.40826 | -7.70367 | 35352 ft | 426 kts | 118° |
| 2026-04-29 19:12 | 56.37977 | -7.60854 | 35346 ft | 427 kts | 118° |
| 2026-04-29 19:12 | 56.35118 | -7.51347 | 35347 ft | 428 kts | 118° |
| 2026-04-29 19:13 | 56.32271 | -7.41918 | 35350 ft | 426 kts | 118° |
| 2026-04-29 19:13 | 56.29384 | -7.32395 | 35354 ft | 426 kts | 119° |
| 2026-04-29 19:14 | 56.26511 | -7.22956 | 35349 ft | 425 kts | 119° |
| 2026-04-29 19:14 | 56.23649 | -7.13593 | 35342 ft | 425 kts | 119° |
| 2026-04-29 19:15 | 56.20770 | -7.04209 | 35346 ft | 425 kts | 119° |
| 2026-04-29 19:15 | 56.17878 | -6.94818 | 35340 ft | 425 kts | 119° |
| 2026-04-29 19:16 | 56.14972 | -6.85422 | 35336 ft | 423 kts | 119° |
| 2026-04-29 19:16 | 56.12093 | -6.76149 | 35336 ft | 424 kts | 119° |
| 2026-04-29 19:17 | 56.09184 | -6.66818 | 35341 ft | 422 kts | 119° |
| 2026-04-29 19:17 | 56.06305 | -6.57619 | 35348 ft | 422 kts | 119° |
| 2026-04-29 19:18 | 56.03383 | -6.48316 | 35330 ft | 422 kts | 119° |
| 2026-04-29 19:18 | 56.00469 | -6.39075 | 35345 ft | 425 kts | 119° |
| 2026-04-29 19:19 | 55.97522 | -6.29768 | 35360 ft | 424 kts | 120° |
| 2026-04-29 19:19 | 55.94591 | -6.20543 | 35348 ft | 424 kts | 120° |
| 2026-04-29 19:20 | 55.91658 | -6.11348 | 35354 ft | 423 kts | 120° |
| 2026-04-29 19:20 | 55.88721 | -6.02179 | 35360 ft | 421 kts | 120° |
| 2026-04-29 19:21 | 55.85768 | -5.92992 | 35366 ft | 423 kts | 120° |
| 2026-04-29 19:21 | 55.82799 | -5.83797 | 35368 ft | 423 kts | 120° |
| 2026-04-29 19:22 | 55.79846 | -5.74683 | 35364 ft | 422 kts | 120° |
| 2026-04-29 19:22 | 55.76899 | -5.65623 | 35366 ft | 420 kts | 120° |
| 2026-04-29 19:23 | 55.73935 | -5.56541 | 35366 ft | 421 kts | 120° |
| 2026-04-29 19:23 | 55.70955 | -5.47446 | 35363 ft | 421 kts | 120° |
| 2026-04-29 19:24 | 55.67969 | -5.38367 | 35369 ft | 422 kts | 120° |
| 2026-04-29 19:24 | 55.64996 | -5.29365 | 35363 ft | 421 kts | 121° |
| 2026-04-29 19:25 | 55.62009 | -5.20350 | 35363 ft | 421 kts | 121° |
| 2026-04-29 19:25 | 55.59007 | -5.11324 | 35366 ft | 420 kts | 121° |
| 2026-04-29 19:26 | 55.56015 | -5.02363 | 35371 ft | 420 kts | 121° |
| 2026-04-29 19:26 | 55.52999 | -4.93363 | 35377 ft | 420 kts | 121° |
| 2026-04-29 19:27 | 55.49990 | -4.84420 | 35374 ft | 420 kts | 121° |
| 2026-04-29 19:27 | 55.46978 | -4.75493 | 35370 ft | 420 kts | 121° |
| 2026-04-29 19:28 | 55.43956 | -4.66580 | 35373 ft | 420 kts | 121° |
| 2026-04-29 19:28 | 55.40916 | -4.57637 | 35372 ft | 420 kts | 121° |
| 2026-04-29 19:29 | 55.37899 | -4.48801 | 35378 ft | 420 kts | 121° |
| 2026-04-29 19:29 | 55.34865 | -4.39942 | 35397 ft | 418 kts | 121° |
| 2026-04-29 19:30 | 55.31809 | -4.31056 | 35372 ft | 420 kts | 122° |
| 2026-04-29 19:30 | 55.28769 | -4.22245 | 35366 ft | 419 kts | 122° |
| 2026-04-29 19:31 | 55.25719 | -4.13440 | 35359 ft | 419 kts | 122° |
| 2026-04-29 19:31 | 55.22651 | -4.04614 | 35366 ft | 419 kts | 122° |
| 2026-04-29 19:32 | 55.19600 | -3.95868 | 35375 ft | 418 kts | 122° |
| 2026-04-29 19:32 | 55.16522 | -3.87077 | 35377 ft | 419 kts | 122° |
| 2026-04-29 19:33 | 55.13430 | -3.78276 | 35373 ft | 419 kts | 122° |
| 2026-04-29 19:33 | 55.10339 | -3.69515 | 35360 ft | 418 kts | 122° |
| 2026-04-29 19:34 | 55.07261 | -3.60815 | 35392 ft | 420 kts | 122° |
| 2026-04-29 19:34 | 55.04143 | -3.52035 | 35378 ft | 419 kts | 122° |
| 2026-04-29 19:35 | 55.01044 | -3.43342 | 35381 ft | 418 kts | 122° |
| 2026-04-29 19:35 | 54.97930 | -3.34635 | 35397 ft | 419 kts | 123° |
| 2026-04-29 19:36 | 54.94810 | -3.25943 | 35393 ft | 419 kts | 123° |
| 2026-04-29 19:36 | 54.91690 | -3.17282 | 35391 ft | 420 kts | 123° |
| 2026-04-29 19:37 | 54.88581 | -3.08682 | 35386 ft | 418 kts | 123° |
| 2026-04-29 19:37 | 54.85450 | -3.00053 | 35378 ft | 419 kts | 123° |
| 2026-04-29 19:38 | 54.82314 | -2.91436 | 35390 ft | 418 kts | 123° |
| 2026-04-29 19:38 | 54.79172 | -2.82836 | 35396 ft | 419 kts | 123° |
| 2026-04-29 19:39 | 54.76008 | -2.74207 | 35391 ft | 420 kts | 123° |
| 2026-04-29 19:39 | 54.72854 | -2.65630 | 35386 ft | 419 kts | 123° |
| 2026-04-29 19:40 | 54.69676 | -2.57025 | 35371 ft | 418 kts | 123° |
| 2026-04-29 19:40 | 54.66514 | -2.48489 | 35380 ft | 419 kts | 123° |
| 2026-04-29 19:41 | 54.63332 | -2.39928 | 35382 ft | 418 kts | 123° |
| 2026-04-29 19:41 | 54.60160 | -2.31424 | 35373 ft | 418 kts | 124° |
| 2026-04-29 19:42 | 54.56965 | -2.22884 | 35379 ft | 419 kts | 123° |
| 2026-04-29 19:42 | 54.53790 | -2.14437 | 35401 ft | 420 kts | 123° |
| 2026-04-29 19:43 | 54.50561 | -2.05864 | 35385 ft | 420 kts | 124° |
| 2026-04-29 19:43 | 54.47359 | -1.97398 | 35398 ft | 419 kts | 124° |
| 2026-04-29 19:44 | 54.44160 | -1.88968 | 35424 ft | 420 kts | 123° |
| 2026-04-29 19:44 | 54.40926 | -1.80474 | 35423 ft | 420 kts | 123° |
| 2026-04-29 19:45 | 54.37692 | -1.72010 | 35415 ft | 419 kts | 123° |
| 2026-04-29 19:45 | 54.34448 | -1.63548 | 35413 ft | 420 kts | 123° |
| 2026-04-29 19:46 | 54.31218 | -1.55151 | 35421 ft | 421 kts | 123° |
| 2026-04-29 19:46 | 54.27957 | -1.46702 | 35422 ft | 421 kts | 123° |
| 2026-04-29 19:47 | 54.24699 | -1.38294 | 35422 ft | 420 kts | 123° |
| 2026-04-29 19:47 | 54.21428 | -1.29875 | 35417 ft | 421 kts | 124° |
| 2026-04-29 19:48 | 54.18155 | -1.21479 | 35408 ft | 421 kts | 124° |
| 2026-04-29 19:48 | 54.14869 | -1.13082 | 35411 ft | 421 kts | 124° |
| 2026-04-29 19:49 | 54.11589 | -1.04724 | 35413 ft | 420 kts | 124° |
| 2026-04-29 19:49 | 54.08306 | -0.96390 | 35402 ft | 421 kts | 124° |
| 2026-04-29 19:50 | 54.04976 | -0.87962 | 35384 ft | 422 kts | 124° |
| 2026-04-29 19:50 | 54.00938 | -0.80757 | 35407 ft | 423 kts | 142° |
| 2026-04-29 19:51 | 53.96078 | -0.74893 | 35382 ft | 423 kts | 143° |
| 2026-04-29 19:51 | 53.91183 | -0.69140 | 35390 ft | 422 kts | 144° |
| 2026-04-29 19:52 | 53.86291 | -0.63426 | 35388 ft | 423 kts | 143° |
| 2026-04-29 19:52 | 53.81401 | -0.57732 | 35393 ft | 423 kts | 143° |
| 2026-04-29 19:53 | 53.76498 | -0.52039 | 35352 ft | 423 kts | 143° |
| 2026-04-29 19:53 | 53.71560 | -0.46324 | 35382 ft | 426 kts | 143° |
| 2026-04-29 19:54 | 53.64181 | -0.37813 | 35390 ft | 424 kts | 143° |
| 2026-04-29 19:54 | 53.59280 | -0.32180 | 35397 ft | 423 kts | 144° |
| 2026-04-29 19:55 | 53.56997 | -0.28964 | 35385 ft | 423 kts | 132° |
| 2026-04-29 19:55 | 53.55184 | -0.24995 | 35409 ft | 422 kts | 125° |
| 2026-04-29 19:55 | 53.51678 | -0.16965 | 35385 ft | 423 kts | 126° |
| 2026-04-29 19:56 | 53.48098 | -0.08983 | 35389 ft | 423 kts | 127° |
| 2026-04-29 19:56 | 53.44543 | -0.01104 | 35383 ft | 421 kts | 127° |
| 2026-04-29 19:57 | 53.41552 | 0.05503 | 35381 ft | 422 kts | 127° |
| 2026-04-29 19:57 | 53.37355 | 0.14747 | 35374 ft | 424 kts | 126° |
| 2026-04-29 19:58 | 53.33750 | 0.22657 | 35383 ft | 423 kts | 126° |
| 2026-04-29 19:58 | 53.30153 | 0.30524 | 35372 ft | 423 kts | 126° |
| 2026-04-29 19:59 | 53.26546 | 0.38391 | 35370 ft | 423 kts | 126° |
| 2026-04-29 19:59 | 53.22908 | 0.46299 | 35371 ft | 423 kts | 126° |
| 2026-04-29 20:00 | 53.19298 | 0.54123 | 35366 ft | 424 kts | 126° |
| 2026-04-29 20:00 | 53.15664 | 0.61973 | 35362 ft | 424 kts | 126° |
| 2026-04-29 20:01 | 53.11993 | 0.69877 | 35370 ft | 425 kts | 127° |
| 2026-04-29 20:01 | 53.08357 | 0.77682 | 35360 ft | 425 kts | 126° |
| 2026-04-29 20:02 | 53.04696 | 0.85520 | 35360 ft | 425 kts | 127° |
| 2026-04-29 20:02 | 53.01848 | 0.91597 | 35371 ft | 425 kts | 126° |
| 2026-04-29 20:03 | 52.97863 | 1.01068 | 35357 ft | 423 kts | 113° |
| 2026-04-29 20:03 | 52.96997 | 1.05779 | 35379 ft | 423 kts | 100° |
| 2026-04-29 20:03 | 52.96567 | 1.10641 | 35387 ft | 425 kts | 99° |
| 2026-04-29 20:04 | 52.95510 | 1.20399 | 35369 ft | 423 kts | 101° |
| 2026-04-29 20:04 | 52.94392 | 1.30082 | 35374 ft | 423 kts | 101° |
| 2026-04-29 20:05 | 52.93259 | 1.39747 | 35369 ft | 424 kts | 101° |
| 2026-04-29 20:05 | 52.92115 | 1.49419 | 35366 ft | 424 kts | 100° |
| 2026-04-29 20:06 | 52.90965 | 1.59075 | 35364 ft | 424 kts | 100° |
| 2026-04-29 20:06 | 52.89807 | 1.68729 | 35380 ft | 423 kts | 101° |
| 2026-04-29 20:07 | 52.89217 | 1.73620 | 35247 ft | 427 kts | 101° |
| 2026-04-29 20:07 | 52.88627 | 1.78492 | 34664 ft | 433 kts | 101° |
| 2026-04-29 20:07 | 52.88028 | 1.83426 | 33993 ft | 433 kts | 101° |
| 2026-04-29 20:07 | 52.87427 | 1.88353 | 33285 ft | 434 kts | 101° |
| 2026-04-29 20:08 | 52.86821 | 1.93306 | 32556 ft | 436 kts | 101° |
| 2026-04-29 20:08 | 52.86417 | 1.96594 | 32075 ft | 436 kts | 101° |
| 2026-04-29 20:08 | 52.85601 | 2.03212 | 31214 ft | 435 kts | 101° |
| 2026-04-29 20:08 | 52.84989 | 2.08159 | 30659 ft | 432 kts | 101° |
| 2026-04-29 20:09 | 52.84386 | 2.13003 | 30173 ft | 428 kts | 101° |
| 2026-04-29 20:09 | 52.83779 | 2.17879 | 29650 ft | 425 kts | 101° |
| 2026-04-29 20:09 | 52.83181 | 2.22655 | 29154 ft | 421 kts | 101° |
| 2026-04-29 20:09 | 52.82579 | 2.27451 | 28555 ft | 419 kts | 101° |
| 2026-04-29 20:10 | 52.81985 | 2.32164 | 27991 ft | 417 kts | 101° |
| 2026-04-29 20:10 | 52.81384 | 2.36925 | 27420 ft | 414 kts | 101° |
| 2026-04-29 20:10 | 52.80796 | 2.41562 | 26937 ft | 409 kts | 101° |
| 2026-04-29 20:10 | 52.80206 | 2.46195 | 26453 ft | 405 kts | 101° |
| 2026-04-29 20:11 | 52.79618 | 2.50801 | 26001 ft | 399 kts | 101° |
| 2026-04-29 20:11 | 52.79046 | 2.55269 | 25552 ft | 394 kts | 101° |
| 2026-04-29 20:11 | 52.78474 | 2.59713 | 25110 ft | 389 kts | 101° |
| 2026-04-29 20:11 | 52.77904 | 2.64137 | 24628 ft | 385 kts | 101° |
| 2026-04-29 20:12 | 52.77343 | 2.68469 | 24161 ft | 381 kts | 101° |
| 2026-04-29 20:12 | 52.76782 | 2.72795 | 23648 ft | 379 kts | 101° |
| 2026-04-29 20:12 | 52.76232 | 2.77022 | 23169 ft | 376 kts | 101° |
| 2026-04-29 20:12 | 52.75674 | 2.81297 | 22662 ft | 372 kts | 101° |
| 2026-04-29 20:13 | 52.75127 | 2.85474 | 22192 ft | 369 kts | 101° |
| 2026-04-29 20:13 | 52.74764 | 2.88247 | 21873 ft | 366 kts | 101° |
| 2026-04-29 20:13 | 52.74045 | 2.93706 | 21264 ft | 360 kts | 101° |
| 2026-04-29 20:13 | 52.73504 | 2.97771 | 20808 ft | 356 kts | 102° |
| 2026-04-29 20:14 | 52.72574 | 3.01514 | 20358 ft | 354 kts | 118° |
| 2026-04-29 20:14 | 52.71319 | 3.05063 | 19942 ft | 349 kts | 117° |
| 2026-04-29 20:14 | 52.70109 | 3.08518 | 19530 ft | 344 kts | 117° |
| 2026-04-29 20:14 | 52.68905 | 3.11949 | 19122 ft | 340 kts | 117° |
| 2026-04-29 20:15 | 52.67718 | 3.15335 | 18713 ft | 339 kts | 117° |
| 2026-04-29 20:15 | 52.66527 | 3.18723 | 18319 ft | 337 kts | 117° |
| 2026-04-29 20:15 | 52.65350 | 3.22067 | 17926 ft | 336 kts | 117° |
| 2026-04-29 20:15 | 52.64176 | 3.25397 | 17524 ft | 333 kts | 117° |
| 2026-04-29 20:16 | 52.63014 | 3.28692 | 17131 ft | 331 kts | 117° |
| 2026-04-29 20:16 | 52.61855 | 3.31968 | 16722 ft | 328 kts | 117° |
| 2026-04-29 20:16 | 52.60689 | 3.35265 | 16311 ft | 326 kts | 117° |
| 2026-04-29 20:16 | 52.59560 | 3.38449 | 15901 ft | 322 kts | 117° |
| 2026-04-29 20:17 | 52.58531 | 3.41730 | 15485 ft | 317 kts | 105° |
| 2026-04-29 20:17 | 52.58095 | 3.45275 | 15083 ft | 312 kts | 97° |
| 2026-04-29 20:17 | 52.57726 | 3.48802 | 14654 ft | 310 kts | 97° |
| 2026-04-29 20:17 | 52.57356 | 3.52315 | 14222 ft | 308 kts | 97° |
| 2026-04-29 20:18 | 52.56988 | 3.55786 | 13784 ft | 306 kts | 97° |
| 2026-04-29 20:18 | 52.56619 | 3.59250 | 13346 ft | 305 kts | 97° |
| 2026-04-29 20:18 | 52.56251 | 3.62698 | 12910 ft | 303 kts | 97° |
| 2026-04-29 20:18 | 52.55883 | 3.66126 | 12500 ft | 300 kts | 98° |
| 2026-04-29 20:19 | 52.55520 | 3.69480 | 12094 ft | 298 kts | 98° |
| 2026-04-29 20:19 | 52.55160 | 3.72833 | 11705 ft | 295 kts | 98° |
| 2026-04-29 20:19 | 52.54798 | 3.76165 | 11336 ft | 293 kts | 98° |
| 2026-04-29 20:19 | 52.54440 | 3.79469 | 10971 ft | 291 kts | 98° |
| 2026-04-29 20:20 | 52.54080 | 3.82766 | 10733 ft | 285 kts | 99° |
| 2026-04-29 20:20 | 52.53355 | 3.85820 | 10715 ft | 287 kts | 121° |
| 2026-04-29 20:20 | 52.51989 | 3.88165 | 10689 ft | 278 kts | 133° |
| 2026-04-29 20:20 | 52.50562 | 3.90279 | 10443 ft | 273 kts | 133° |
| 2026-04-29 20:21 | 52.49162 | 3.92341 | 10312 ft | 263 kts | 133° |
| 2026-04-29 20:21 | 52.47790 | 3.94351 | 10029 ft | 261 kts | 133° |
| 2026-04-29 20:21 | 52.46431 | 3.96345 | 9724 ft | 261 kts | 133° |
| 2026-04-29 20:21 | 52.45061 | 3.98350 | 9432 ft | 259 kts | 133° |
| 2026-04-29 20:22 | 52.43715 | 4.00322 | 9123 ft | 257 kts | 133° |
| 2026-04-29 20:22 | 52.42379 | 4.02277 | 8863 ft | 255 kts | 133° |
| 2026-04-29 20:22 | 52.41063 | 4.04202 | 8566 ft | 253 kts | 133° |
| 2026-04-29 20:22 | 52.39750 | 4.06116 | 8313 ft | 251 kts | 133° |
| 2026-04-29 20:23 | 52.38448 | 4.08081 | 8006 ft | 248 kts | 129° |
| 2026-04-29 20:23 | 52.37295 | 4.10145 | 7747 ft | 245 kts | 127° |
| 2026-04-29 20:23 | 52.36142 | 4.12240 | 7495 ft | 244 kts | 127° |
| 2026-04-29 20:23 | 52.35008 | 4.14323 | 7226 ft | 247 kts | 127° |
| 2026-04-29 20:24 | 52.33846 | 4.16452 | 6822 ft | 251 kts | 127° |
| 2026-04-29 20:24 | 52.32693 | 4.18571 | 6732 ft | 241 kts | 127° |
| 2026-04-29 20:24 | 52.31580 | 4.20611 | 6434 ft | 241 kts | 127° |
| 2026-04-29 20:24 | 52.30455 | 4.22665 | 6169 ft | 239 kts | 127° |
| 2026-04-29 20:25 | 52.29356 | 4.24665 | 5927 ft | 237 kts | 127° |
| 2026-04-29 20:25 | 52.28261 | 4.26690 | 5623 ft | 237 kts | 127° |
| 2026-04-29 20:25 | 52.27176 | 4.28696 | 5387 ft | 235 kts | 127° |
| 2026-04-29 20:25 | 52.26097 | 4.30696 | 5137 ft | 234 kts | 127° |
| 2026-04-29 20:26 | 52.25031 | 4.32683 | 4883 ft | 233 kts | 127° |
| 2026-04-29 20:26 | 52.23962 | 4.34675 | 4629 ft | 231 kts | 127° |
| 2026-04-29 20:26 | 52.22918 | 4.36632 | 4382 ft | 230 kts | 127° |
| 2026-04-29 20:26 | 52.21874 | 4.38593 | 4137 ft | 228 kts | 127° |
| 2026-04-29 20:27 | 52.20836 | 4.40535 | 3915 ft | 225 kts | 127° |
| 2026-04-29 20:27 | 52.20235 | 4.41863 | 3836 ft | 217 kts | 114° |
| 2026-04-29 20:27 | 52.19920 | 4.44973 | 3767 ft | 203 kts | 92° |
| 2026-04-29 20:27 | 52.19877 | 4.47270 | 3539 ft | 203 kts | 92° |
| 2026-04-29 20:28 | 52.19854 | 4.49545 | 3373 ft | 196 kts | 86° |
| 2026-04-29 20:28 | 52.20371 | 4.51556 | 3145 ft | 193 kts | 61° |
| 2026-04-29 20:28 | 52.21077 | 4.53375 | 2898 ft | 187 kts | 63° |
| 2026-04-29 20:28 | 52.21761 | 4.55163 | 2651 ft | 182 kts | 63° |
| 2026-04-29 20:29 | 52.22421 | 4.56878 | 2404 ft | 175 kts | 63° |
| 2026-04-29 20:29 | 52.23038 | 4.58470 | 2181 ft | 158 kts | 64° |
| 2026-04-29 20:29 | 52.23590 | 4.59892 | 2069 ft | 144 kts | 65° |
| 2026-04-29 20:29 | 52.24114 | 4.61254 | 1825 ft | 138 kts | 64° |
| 2026-04-29 20:30 | 52.24616 | 4.62561 | 1631 ft | 136 kts | 65° |
| 2026-04-29 20:30 | 52.25123 | 4.63888 | 1441 ft | 138 kts | 63° |
| 2026-04-29 20:30 | 52.25643 | 4.65235 | 1243 ft | 142 kts | 64° |
| 2026-04-29 20:30 | 52.26153 | 4.66591 | 1038 ft | 135 kts | 64° |
| 2026-04-29 20:31 | 52.26636 | 4.67854 | 859 ft | 129 kts | 64° |
| 2026-04-29 20:31 | 52.27072 | 4.69144 | 705 ft | 132 kts | 56° |
| 2026-04-29 20:31 | 52.27607 | 4.70374 | 521 ft | 130 kts | 62° |
| 2026-04-29 20:31 | 52.28104 | 4.71651 | 326 ft | 134 kts | 62° |
| 2026-04-29 20:32 | 52.28599 | 4.72908 | 189 ft | 135 kts | 59° |
| 2026-04-29 20:32 | 52.29100 | 4.74214 | 41 ft | 132 kts | 60° |
| 2026-04-29 20:32 | 52.29537 | 4.75367 | 1 ft | 101 kts | 56° |
| 2026-04-29 20:32 | 52.29808 | 4.76064 | 0 ft | 44 kts | 58° |
| 2026-04-29 20:33 | 52.29899 | 4.76299 | 1 ft | 21 kts | 57° |
| 2026-04-29 20:33 | 52.30011 | 4.76520 | 0 ft | 27 kts | 37° |
| 2026-04-29 20:33 | 52.30167 | 4.76659 | 0 ft | 7 kts | 28° |
| 2026-04-29 20:33 | 52.30171 | 4.76662 | 0 ft | 0 kts | 27° |
| 2026-04-29 20:34 | 52.30175 | 4.76666 | 0 ft | 4 kts | 27° |
| 2026-04-29 20:34 | 52.30240 | 4.76720 | 2 ft | 12 kts | 27° |
| 2026-04-29 20:34 | 52.30300 | 4.76800 | 3 ft | 10 kts | 54° |
| 2026-04-29 20:34 | 52.30352 | 4.76928 | 4 ft | 17 kts | 57° |
| 2026-04-29 20:35 | 52.30431 | 4.77129 | 8 ft | 22 kts | 58° |
| 2026-04-29 20:35 | 52.30510 | 4.77341 | 10 ft | 17 kts | 57° |
| 2026-04-29 20:35 | 52.30572 | 4.77498 | 11 ft | 15 kts | 53° |
| 2026-04-29 20:35 | 52.30661 | 4.77587 | 12 ft | 14 kts | 8° |
| 2026-04-29 20:36 | 52.30761 | 4.77600 | 12 ft | 13 kts | 3° |
| 2026-04-29 20:36 | 52.30851 | 4.77606 | 14 ft | 11 kts | 3° |
| 2026-04-29 20:36 | 52.30927 | 4.77612 | 14 ft | 10 kts | 3° |
| 2026-04-29 20:36 | 52.31023 | 4.77622 | 14 ft | 17 kts | 4° |
| 2026-04-29 20:37 | 52.31170 | 4.77638 | 11 ft | 23 kts | 4° |
| 2026-04-29 20:37 | 52.31327 | 4.77652 | 7 ft | 19 kts | 3° |
| 2026-04-29 20:37 | 52.31446 | 4.77638 | 5 ft | 17 kts | 345° |
| 2026-04-29 20:37 | 52.31535 | 4.77522 | 6 ft | 16 kts | 312° |
| 2026-04-29 20:38 | 52.31578 | 4.77348 | 5 ft | 19 kts | 268° |
| 2026-04-29 20:38 | 52.31571 | 4.77114 | 4 ft | 19 kts | 266° |
| 2026-04-29 20:38 | 52.31565 | 4.76950 | 4 ft | 13 kts | 266° |
| 2026-04-29 20:38 | 52.31559 | 4.76793 | 2 ft | 14 kts | 266° |
| 2026-04-29 20:39 | 52.31533 | 4.76691 | 3 ft | 9 kts | 212° |
| 2026-04-29 20:39 | 52.31466 | 4.76657 | 4 ft | 9 kts | 203° |
| 2026-04-29 20:39 | 52.31414 | 4.76606 | 5 ft | 8 kts | 212° |
| 2026-04-29 20:39 | 52.31376 | 4.76567 | 7 ft | 4 kts | 213° |
| 2026-04-29 20:40 | 52.31355 | 4.76544 | 8 ft | 3 kts | 215° |
| 2026-04-29 20:40 | 52.31329 | 4.76514 | 10 ft | 10 kts | 214° |
| 2026-04-29 20:40 | 52.31267 | 4.76456 | 11 ft | 7 kts | 187° |
| 2026-04-29 20:40 | 52.31230 | 4.76503 | 12 ft | 6 kts | 126° |
| 2026-04-29 20:41 | 52.31208 | 4.76557 | 13 ft | 3 kts | 124° |
| 2026-04-29 20:41 | 52.31204 | 4.76565 | 13 ft | 0 kts | 124° |